Time;durP1;ratioP1;P1;durP2;ratioP2;P2;SDS_P1;SDS_P2;PMS_P1;PMS_P2;Temp;Humidity;BMP_temperature;BMP_pressure;BME280_temperature;BME280_humidity;BME280_pressure;Samples;Min_cycle;Max_cycle;Signal;HPM_P1;HPM_P2
2022/01/20 00:03:22;;;;;;;11.98;1.25;;;5.00;99.90;;;;;;5037356;28;20032;-61
2022/01/20 00:27:25;;;;;;;5.90;0.60;;;4.60;99.90;;;;;;5040887;28;20032;-61
2022/01/20 00:32:24;;;;;;;7.88;1.30;;;4.70;99.90;;;;;;5038969;28;20444;-62
2022/01/20 00:37:28;;;;;;;9.98;1.25;;;4.80;99.90;;;;;;5040422;28;20025;-62
2022/01/20 00:39:55;;;;;;;11.75;1.63;;;4.90;99.90;;;;;;5041580;28;20036;-62
2022/01/20 00:42:21;;;;;;;18.63;2.28;;;5.00;99.90;;;;;;5039975;28;20095;-62
2022/01/20 00:44:47;;;;;;;13.65;2.10;;;4.90;99.90;;;;;;5042747;28;20485;-64
2022/01/20 00:47:14;;;;;;;10.88;1.27;;;5.00;99.90;;;;;;5035738;28;20041;-62
2022/01/20 00:49:42;;;;;;;12.25;1.20;;;5.10;99.90;;;;;;5040853;28;20025;-61
2022/01/20 00:52:08;;;;;;;9.23;1.10;;;5.10;99.90;;;;;;5039895;28;20038;-62
2022/01/20 00:54:34;;;;;;;9.68;1.60;;;5.20;99.90;;;;;;5041322;28;20036;-61
2022/01/20 00:56:59;;;;;;;19.38;1.63;;;5.20;99.90;;;;;;5042925;28;20043;-62
2022/01/20 00:59:27;;;;;;;10.38;1.35;;;5.20;99.90;;;;;;5041743;28;20039;-61
2022/01/20 01:01:53;;;;;;;15.52;1.70;;;5.10;99.90;;;;;;5039389;28;20804;-62
2022/01/20 01:04:19;;;;;;;6.80;1.55;;;5.10;99.90;;;;;;5041075;28;20037;-63
2022/01/20 01:09:10;;;;;;;14.07;2.25;;;5.00;99.90;;;;;;5038853;28;20021;-63
2022/01/20 01:11:37;;;;;;;10.80;1.48;;;4.90;99.90;;;;;;5040947;28;20037;-62
2022/01/20 01:14:04;;;;;;;13.73;2.38;;;4.80;99.90;;;;;;5038643;28;20037;-61
2022/01/20 01:19:48;;;;;;;8.93;1.52;;;4.80;99.90;;;;;;5038331;28;20620;-60
2022/01/20 01:22:21;;;;;;;12.30;1.75;;;4.80;99.90;;;;;;5039526;28;20039;-63
2022/01/20 01:24:52;;;;;;;9.10;1.23;;;4.90;99.90;;;;;;5041734;28;20036;-62
2022/01/20 01:27:19;;;;;;;6.38;1.38;;;5.00;99.90;;;;;;5039156;28;20033;-62
2022/01/20 01:32:58;;;;;;;21.55;4.03;;;5.00;99.90;;;;;;5041054;28;20055;-62
2022/01/20 01:35:20;;;;;;;16.92;1.30;;;5.00;99.90;;;;;;5034326;28;20034;-62
2022/01/20 01:40:21;;;;;;;15.80;1.80;;;5.10;99.90;;;;;;5039392;28;20029;-62
2022/01/20 01:42:50;;;;;;;15.10;2.95;;;5.10;99.90;;;;;;5041212;28;20148;-61
2022/01/20 01:45:28;;;;;;;13.13;1.40;;;5.10;99.90;;;;;;5041686;28;20037;-62
2022/01/20 01:47:54;;;;;;;8.27;1.55;;;5.30;99.90;;;;;;5042268;28;20119;-62
2022/01/20 01:50:21;;;;;;;17.00;2.58;;;5.40;99.90;;;;;;5038910;28;20033;-61
2022/01/20 01:52:47;;;;;;;16.85;2.60;;;5.50;99.90;;;;;;5040707;28;20041;-61
2022/01/20 01:55:13;;;;;;;12.88;1.98;;;5.40;99.90;;;;;;5036905;28;20035;-61
2022/01/20 01:57:39;;;;;;;18.45;2.63;;;5.40;99.90;;;;;;5036268;28;20474;-63
2022/01/20 02:00:06;;;;;;;11.25;1.60;;;5.30;99.90;;;;;;5040347;28;20116;-62
2022/01/20 02:02:32;;;;;;;16.17;1.88;;;5.30;99.90;;;;;;5040563;28;20029;-62
2022/01/20 02:04:58;;;;;;;14.48;2.17;;;5.20;99.90;;;;;;5038975;28;20078;-61
2022/01/20 02:20:53;;;;;;;20.67;2.63;;;5.10;99.90;;;;;;5039550;28;20403;-62
2022/01/20 02:23:19;;;;;;;10.30;1.35;;;5.10;99.90;;;;;;5037842;28;20025;-61
2022/01/20 02:25:46;;;;;;;20.55;3.55;;;5.20;99.90;;;;;;5038024;28;20103;-63
2022/01/20 02:28:12;;;;;;;18.73;2.00;;;5.20;99.90;;;;;;5040165;28;20128;-64
2022/01/20 02:30:42;;;;;;;17.48;1.95;;;5.30;99.90;;;;;;5035636;28;20040;-63
2022/01/20 02:33:16;;;;;;;14.18;2.10;;;5.40;99.90;;;;;;5031831;28;20123;-63
2022/01/20 02:35:47;;;;;;;23.67;2.75;;;5.40;99.90;;;;;;5033808;28;20037;-62
2022/01/20 02:38:27;;;;;;;13.88;1.88;;;5.40;99.90;;;;;;5040363;28;20079;-62
2022/01/20 02:46:22;;;;;;;12.55;1.98;;;5.50;99.90;;;;;;5037414;28;20056;-62
2022/01/20 02:48:47;;;;;;;15.80;3.40;;;5.60;99.90;;;;;;5039639;28;20493;-61
2022/01/20 02:51:13;;;;;;;21.75;3.15;;;5.60;99.90;;;;;;5037461;28;20116;-62
2022/01/20 02:53:39;;;;;;;6.32;1.35;;;5.60;99.90;;;;;;5040387;28;20473;-62
2022/01/20 02:56:05;;;;;;;11.20;1.70;;;5.50;99.90;;;;;;5040909;28;20045;-62
2022/01/20 02:58:30;;;;;;;25.08;3.35;;;5.40;99.90;;;;;;5044549;28;20065;-62
2022/01/20 03:00:56;;;;;;;19.15;1.70;;;5.30;99.90;;;;;;5040733;28;20135;-62
2022/01/20 03:03:22;;;;;;;15.93;2.67;;;5.20;99.90;;;;;;5043066;28;20033;-62
2022/01/20 03:05:48;;;;;;;11.40;1.50;;;5.10;99.90;;;;;;5043043;28;20033;-62
2022/01/20 03:08:14;;;;;;;11.05;1.35;;;5.00;99.90;;;;;;5045724;28;20021;-62
2022/01/20 03:10:39;;;;;;;18.95;1.85;;;5.00;99.90;;;;;;5040825;28;20036;-61
2022/01/20 03:13:06;;;;;;;16.02;2.03;;;5.00;99.90;;;;;;5043318;28;20041;-61
2022/01/20 03:15:34;;;;;;;12.23;1.40;;;4.90;99.90;;;;;;5041456;28;20033;-62
2022/01/20 03:18:00;;;;;;;31.10;5.95;;;4.90;99.90;;;;;;5044118;28;20053;-61
2022/01/20 03:20:26;;;;;;;16.58;2.75;;;5.00;99.90;;;;;;5041707;28;20028;-62
2022/01/20 03:22:51;;;;;;;10.15;1.60;;;5.10;99.90;;;;;;5041225;28;20041;-63
2022/01/20 03:25:17;;;;;;;6.85;2.13;;;5.20;99.90;;;;;;5043311;28;20037;-62
2022/01/20 03:27:43;;;;;;;8.55;1.38;;;5.20;99.90;;;;;;5041494;28;20045;-61
2022/01/20 03:30:09;;;;;;;11.73;1.70;;;5.20;99.90;;;;;;5044164;28;20761;-61
2022/01/20 03:32:35;;;;;;;8.32;0.70;;;5.20;99.90;;;;;;5040672;28;20053;-62
2022/01/20 03:35:03;;;;;;;7.05;1.05;;;5.10;99.90;;;;;;5043692;28;20489;-61
2022/01/20 03:37:29;;;;;;;3.83;0.60;;;5.10;99.90;;;;;;5040700;28;20030;-61
2022/01/20 03:39:55;;;;;;;4.30;0.50;;;5.00;99.90;;;;;;5042298;28;20160;-61
2022/01/20 03:42:21;;;;;;;6.68;1.25;;;5.00;99.90;;;;;;5045056;28;20112;-61
2022/01/20 03:44:46;;;;;;;6.60;1.23;;;5.10;99.90;;;;;;5041702;28;20034;-62
2022/01/20 03:47:12;;;;;;;6.95;0.52;;;5.00;99.90;;;;;;5043478;28;20040;-62
2022/01/20 03:49:53;;;;;;;5.93;0.60;;;5.00;99.90;;;;;;5040171;28;20033;-62
2022/01/20 03:52:19;;;;;;;6.95;0.55;;;5.00;99.90;;;;;;5042589;28;20029;-63
2022/01/20 03:54:44;;;;;;;6.78;0.65;;;4.90;99.90;;;;;;5041098;28;20042;-62
2022/01/20 03:57:10;;;;;;;4.10;0.82;;;4.90;99.90;;;;;;5043471;28;20025;-62
2022/01/20 03:59:36;;;;;;;8.48;0.77;;;4.80;99.90;;;;;;5040092;28;20033;-63
2022/01/20 04:02:03;;;;;;;10.50;1.10;;;4.80;99.90;;;;;;5034622;28;20037;-62
2022/01/20 04:04:29;;;;;;;3.97;0.68;;;4.80;99.90;;;;;;5040614;28;20026;-62
2022/01/20 04:06:55;;;;;;;3.47;0.43;;;4.80;99.90;;;;;;5043095;28;20053;-62
2022/01/20 04:09:20;;;;;;;9.15;1.10;;;4.80;99.90;;;;;;5041701;28;20507;-62
2022/01/20 04:11:47;;;;;;;4.80;0.95;;;4.80;99.90;;;;;;5039545;28;20029;-63
2022/01/20 04:14:13;;;;;;;10.27;1.83;;;4.90;99.90;;;;;;5041081;28;20374;-62
2022/01/20 04:19:24;;;;;;;8.88;1.25;;;4.90;99.90;;;;;;5042498;28;20038;-64
2022/01/20 04:21:49;;;;;;;6.22;0.60;;;4.90;99.90;;;;;;5041104;28;20033;-62
2022/01/20 04:24:16;;;;;;;11.00;1.77;;;4.90;99.90;;;;;;5040234;28;20107;-62
2022/01/20 04:26:43;;;;;;;9.73;1.27;;;4.90;99.90;;;;;;5042014;28;20037;-63
2022/01/20 04:29:11;;;;;;;4.75;0.73;;;5.00;99.90;;;;;;5040238;28;20026;-62
2022/01/20 04:31:38;;;;;;;8.65;1.08;;;5.00;99.90;;;;;;5042303;28;20126;-62
2022/01/20 04:34:06;;;;;;;19.45;1.65;;;5.10;99.90;;;;;;5035542;28;20030;-62
2022/01/20 04:36:36;;;;;;;3.05;0.82;;;5.10;99.90;;;;;;5043335;28;20045;-62
2022/01/20 04:39:04;;;;;;;15.57;1.73;;;5.10;99.90;;;;;;5035794;28;20037;-62
2022/01/20 04:41:30;;;;;;;6.05;1.27;;;5.00;99.90;;;;;;5037026;28;20037;-61
2022/01/20 04:44:00;;;;;;;11.55;2.13;;;4.90;99.90;;;;;;5042471;28;20044;-61
2022/01/20 04:57:19;;;;;;;12.70;1.67;;;4.80;99.90;;;;;;5034919;28;20432;-62
2022/01/20 04:59:46;;;;;;;8.30;1.85;;;4.90;99.90;;;;;;5040637;28;20647;-62
2022/01/20 05:02:12;;;;;;;20.08;2.22;;;4.90;99.90;;;;;;5039020;28;20051;-62
2022/01/20 05:04:39;;;;;;;10.60;1.45;;;4.90;99.90;;;;;;5039437;28;20430;-62
2022/01/20 05:07:06;;;;;;;16.60;2.03;;;4.90;99.90;;;;;;5042305;28;20554;-61
2022/01/20 05:09:32;;;;;;;9.15;1.85;;;4.90;99.90;;;;;;5039346;28;20124;-62
2022/01/20 05:12:08;;;;;;;18.08;2.42;;;4.90;99.90;;;;;;5034375;28;20112;-63
2022/01/20 05:14:33;;;;;;;18.90;2.63;;;4.80;99.90;;;;;;5038542;28;20033;-61
2022/01/20 05:16:59;;;;;;;16.88;2.80;;;4.80;99.90;;;;;;5041706;28;20495;-62
2022/01/20 05:19:27;;;;;;;27.35;2.15;;;4.90;99.90;;;;;;5038845;28;20476;-62
2022/01/20 05:21:53;;;;;;;12.82;3.10;;;4.80;99.90;;;;;;5041078;28;20037;-62
2022/01/20 05:24:20;;;;;;;20.02;3.60;;;4.90;99.90;;;;;;5040029;28;20028;-61
2022/01/20 05:26:46;;;;;;;12.07;1.35;;;4.80;99.90;;;;;;5040398;28;20044;-62
2022/01/20 05:29:12;;;;;;;14.23;1.83;;;4.80;99.90;;;;;;5041076;28;20523;-61
2022/01/20 05:31:37;;;;;;;18.20;2.58;;;4.80;99.90;;;;;;5033515;28;20089;-62
2022/01/20 05:34:03;;;;;;;12.10;1.40;;;4.90;99.90;;;;;;5032547;28;20041;-63
2022/01/20 05:36:29;;;;;;;10.88;2.83;;;4.90;99.90;;;;;;5029743;28;20036;-63
2022/01/20 05:38:54;;;;;;;15.10;2.25;;;5.00;99.90;;;;;;5032810;28;20078;-62
2022/01/20 05:41:20;;;;;;;18.20;2.00;;;5.00;99.90;;;;;;5031985;28;20041;-62
2022/01/20 05:43:46;;;;;;;15.20;1.83;;;4.90;99.90;;;;;;5040897;28;20113;-62
2022/01/20 05:46:14;;;;;;;12.63;1.58;;;5.00;99.90;;;;;;5031918;28;20124;-62
2022/01/20 05:48:46;;;;;;;19.90;2.42;;;5.00;99.90;;;;;;5029733;28;20397;-62
2022/01/20 05:51:12;;;;;;;18.25;3.67;;;5.00;99.90;;;;;;5031701;28;20485;-64
2022/01/20 05:53:37;;;;;;;9.77;2.35;;;5.00;99.90;;;;;;5040348;28;20087;-62
2022/01/20 05:56:03;;;;;;;10.60;1.48;;;5.00;99.90;;;;;;5038845;28;20486;-62
2022/01/20 05:58:29;;;;;;;16.00;1.80;;;5.00;99.90;;;;;;5041843;28;20037;-62
2022/01/20 06:00:55;;;;;;;13.45;2.65;;;5.00;99.90;;;;;;5034184;28;20116;-62
2022/01/20 06:03:36;;;;;;;8.30;1.77;;;5.00;99.90;;;;;;5041487;28;20033;-70
2022/01/20 06:06:02;;;;;;;;;;;5.00;99.90;;;;;;5012855;28;20101;-62
2022/01/20 06:08:27;;;;;;;8.05;1.13;;;5.00;99.90;;;;;;5031824;28;19960;-64
2022/01/20 06:10:53;;;;;;;9.95;1.95;;;5.00;99.90;;;;;;5035368;28;20063;-63
2022/01/20 06:13:19;;;;;;;12.90;2.05;;;5.00;99.90;;;;;;5035507;28;20405;-63
2022/01/20 06:15:45;;;;;;;30.08;2.88;;;5.00;99.90;;;;;;5029975;28;20033;-62
2022/01/20 06:18:10;;;;;;;10.52;1.40;;;5.00;99.90;;;;;;5035211;28;20083;-61
2022/01/20 06:20:37;;;;;;;13.23;1.20;;;5.00;99.90;;;;;;5033682;28;20036;-62
2022/01/20 06:23:07;;;;;;;13.43;1.95;;;5.00;99.90;;;;;;5033969;28;20040;-63
2022/01/20 06:25:33;;;;;;;14.63;1.50;;;5.00;99.90;;;;;;5037586;28;20037;-62
2022/01/20 06:27:59;;;;;;;16.55;1.10;;;5.00;99.90;;;;;;5034652;28;20025;-64
2022/01/20 06:30:25;;;;;;;8.57;1.30;;;5.00;99.90;;;;;;5031721;28;20033;-62
2022/01/20 06:32:51;;;;;;;5.65;1.15;;;5.00;99.90;;;;;;5037613;28;20116;-62
2022/01/20 06:35:17;;;;;;;14.40;2.05;;;5.00;99.90;;;;;;5035550;28;20142;-62
2022/01/20 06:37:43;;;;;;;7.70;1.50;;;5.00;99.90;;;;;;5031369;28;20132;-62
2022/01/20 06:40:09;;;;;;;14.18;1.77;;;5.00;99.90;;;;;;5035999;28;20036;-63
2022/01/20 06:42:35;;;;;;;10.68;2.33;;;4.90;99.90;;;;;;5035813;28;20516;-67
2022/01/20 06:45:03;;;;;;;10.15;1.27;;;4.90;99.90;;;;;;5034507;28;20032;-62
2022/01/20 06:47:29;;;;;;;12.95;0.88;;;5.00;99.90;;;;;;5036283;28;20056;-62
2022/01/20 06:49:54;;;;;;;8.90;1.00;;;5.00;99.90;;;;;;5036192;28;20138;-61
2022/01/20 06:52:20;;;;;;;12.35;1.02;;;5.00;99.90;;;;;;5036598;28;20108;-64
2022/01/20 06:54:45;;;;;;;11.98;1.40;;;5.00;99.90;;;;;;5034403;28;20037;-61
2022/01/20 06:57:11;;;;;;;12.43;1.55;;;4.90;99.90;;;;;;5038713;28;20486;-62
2022/01/20 06:59:36;;;;;;;17.10;1.98;;;4.80;99.90;;;;;;5035996;28;20041;-63
2022/01/20 07:02:02;;;;;;;9.57;1.63;;;4.70;99.90;;;;;;5032752;28;20490;-62
2022/01/20 07:04:28;;;;;;;7.03;1.17;;;4.70;99.90;;;;;;5039606;28;20041;-62
2022/01/20 07:06:55;;;;;;;3.83;0.93;;;4.60;99.90;;;;;;5032622;28;20496;-63
2022/01/20 07:09:21;;;;;;;9.13;1.13;;;4.60;99.90;;;;;;5033084;28;20112;-61
2022/01/20 07:11:47;;;;;;;8.43;1.73;;;4.40;99.90;;;;;;5036218;28;20595;-62
2022/01/20 07:14:12;;;;;;;7.60;1.10;;;4.40;99.90;;;;;;5038146;28;20041;-62
2022/01/20 07:16:38;;;;;;;10.10;1.92;;;4.30;99.90;;;;;;5034956;28;20400;-62
2022/01/20 07:19:04;;;;;;;7.03;1.35;;;4.30;99.90;;;;;;5034850;28;20037;-61
2022/01/20 07:21:30;;;;;;;5.40;1.40;;;4.30;99.90;;;;;;5036098;28;20126;-63
2022/01/20 07:23:55;;;;;;;11.23;2.20;;;4.30;99.90;;;;;;5033779;28;20048;-62
2022/01/20 07:26:21;;;;;;;10.95;1.35;;;4.30;99.90;;;;;;5033985;28;20434;-62
2022/01/20 07:28:47;;;;;;;14.10;1.23;;;4.30;99.90;;;;;;5036614;28;20037;-62
2022/01/20 07:31:12;;;;;;;15.20;2.67;;;4.20;99.90;;;;;;5035322;28;20805;-62
2022/01/20 07:33:38;;;;;;;7.95;1.00;;;4.20;99.90;;;;;;5031747;28;20042;-62
2022/01/20 07:36:04;;;;;;;21.92;2.58;;;4.20;99.90;;;;;;5035157;28;20045;-62
2022/01/20 07:38:31;;;;;;;10.18;1.95;;;4.20;99.90;;;;;;5038333;28;20982;-62
2022/01/20 07:40:57;;;;;;;9.85;2.20;;;4.10;99.90;;;;;;5033764;28;20037;-61
2022/01/20 07:43:22;;;;;;;11.70;1.70;;;4.20;99.90;;;;;;5040516;28;20079;-61
2022/01/20 07:45:48;;;;;;;19.30;1.63;;;4.10;99.90;;;;;;5038658;28;20107;-62
2022/01/20 07:48:14;;;;;;;9.65;2.80;;;4.10;99.90;;;;;;5037397;28;20514;-61
2022/01/20 07:50:39;;;;;;;11.88;1.52;;;4.00;99.90;;;;;;5036613;28;20102;-62
2022/01/20 07:53:05;;;;;;;23.27;1.73;;;4.00;99.90;;;;;;5039964;28;20029;-62
2022/01/20 07:55:31;;;;;;;16.05;1.30;;;4.00;99.90;;;;;;5036138;28;20409;-64
2022/01/20 07:57:57;;;;;;;10.80;0.90;;;4.00;99.90;;;;;;5031957;28;20449;-62
2022/01/20 08:00:22;;;;;;;15.60;1.48;;;4.00;99.90;;;;;;5033324;28;20045;-62
2022/01/20 08:02:48;;;;;;;17.10;1.88;;;4.00;99.90;;;;;;5039483;28;20029;-63
2022/01/20 08:05:14;;;;;;;9.30;1.38;;;4.10;99.90;;;;;;5037671;28;20033;-62
2022/01/20 08:07:40;;;;;;;6.07;2.40;;;4.10;99.90;;;;;;5032101;28;20038;-62
2022/01/20 08:10:07;;;;;;;11.52;1.27;;;4.10;99.90;;;;;;5039343;28;20489;-61
2022/01/20 08:12:33;;;;;;;13.90;2.30;;;4.10;99.90;;;;;;5037814;28;20037;-61
2022/01/20 08:14:59;;;;;;;9.52;1.80;;;4.10;99.90;;;;;;5036715;28;20107;-61
2022/01/20 08:17:26;;;;;;;11.10;1.65;;;4.20;99.90;;;;;;5041295;28;20335;-62
2022/01/20 08:19:51;;;;;;;12.55;1.92;;;4.20;99.90;;;;;;5032947;28;20042;-61
2022/01/20 08:22:17;;;;;;;12.73;1.55;;;4.10;99.90;;;;;;5035409;28;20037;-63
2022/01/20 08:24:43;;;;;;;13.48;3.17;;;4.20;99.90;;;;;;5038402;28;20488;-63
2022/01/20 08:27:09;;;;;;;9.60;1.40;;;4.20;99.90;;;;;;5034941;28;20053;-61
2022/01/20 08:29:36;;;;;;;8.07;1.23;;;4.20;99.90;;;;;;5034868;28;20041;-62
2022/01/20 08:32:02;;;;;;;14.15;2.70;;;4.30;99.90;;;;;;5035807;28;20029;-62
2022/01/20 08:34:27;;;;;;;10.75;1.10;;;4.30;99.90;;;;;;5037383;28;20017;-63
2022/01/20 08:36:55;;;;;;;16.65;1.73;;;4.30;99.90;;;;;;5032890;28;20386;-61
2022/01/20 08:42:03;;;;;;;8.43;1.50;;;4.30;99.90;;;;;;5032448;28;20037;-62
2022/01/20 08:44:28;;;;;;;9.95;2.28;;;4.30;99.90;;;;;;5034054;28;20044;-62
2022/01/20 08:46:57;;;;;;;15.85;1.30;;;4.30;99.90;;;;;;5032840;28;20041;-62
2022/01/20 08:49:23;;;;;;;10.40;1.52;;;4.30;99.90;;;;;;5038874;28;20156;-62
2022/01/20 08:51:50;;;;;;;13.77;1.92;;;4.40;99.90;;;;;;5033454;28;20036;-62
2022/01/20 08:54:15;;;;;;;6.40;1.08;;;4.50;99.90;;;;;;5027413;28;20436;-62
2022/01/20 08:56:42;;;;;;;14.20;1.58;;;4.60;99.90;;;;;;5037625;28;20098;-62
2022/01/20 08:59:09;;;;;;;11.73;1.63;;;4.70;99.90;;;;;;5036587;28;20155;-62
2022/01/20 09:01:37;;;;;;;10.95;1.13;;;4.80;99.90;;;;;;5034531;28;20539;-62
2022/01/20 09:04:03;;;;;;;11.95;1.98;;;4.70;99.90;;;;;;5035391;28;20033;-62
2022/01/20 09:06:29;;;;;;;8.93;1.20;;;4.80;99.90;;;;;;5037705;28;20049;-62
2022/01/20 09:08:55;;;;;;;11.98;1.55;;;4.80;99.90;;;;;;5032964;28;20042;-63
2022/01/20 09:11:24;;;;;;;8.57;1.52;;;4.80;99.90;;;;;;5034051;28;20034;-62
2022/01/20 09:16:36;;;;;;;8.57;1.80;;;4.80;99.90;;;;;;5035679;28;20036;-64
2022/01/20 09:19:02;;;;;;;11.75;1.00;;;4.90;99.90;;;;;;5034650;28;20033;-62
2022/01/20 09:21:28;;;;;;;6.82;1.25;;;4.90;99.90;;;;;;5035533;28;20397;-62
2022/01/20 09:23:55;;;;;;;11.65;1.30;;;5.00;99.90;;;;;;5037171;28;20131;-63
2022/01/20 09:26:21;;;;;;;9.45;1.08;;;5.10;99.90;;;;;;5036179;28;20040;-61
2022/01/20 09:28:47;;;;;;;15.13;2.47;;;5.20;99.90;;;;;;5033086;28;20116;-62
2022/01/20 09:31:13;;;;;;;12.18;2.10;;;5.20;99.90;;;;;;5038104;28;20532;-62
2022/01/20 09:33:39;;;;;;;5.68;1.02;;;5.30;99.90;;;;;;5037484;28;20032;-63
2022/01/20 09:36:09;;;;;;;4.20;0.60;;;5.30;99.90;;;;;;5035714;28;20037;-62
2022/01/20 09:38:35;;;;;;;6.83;0.50;;;5.40;99.90;;;;;;5034641;28;20404;-62
2022/01/20 09:41:01;;;;;;;8.00;1.13;;;5.50;99.90;;;;;;5037837;28;20030;-62
2022/01/20 09:43:27;;;;;;;12.77;1.77;;;5.60;99.90;;;;;;5036391;28;20040;-61
2022/01/20 09:45:55;;;;;;;4.68;0.50;;;5.70;99.90;;;;;;5033186;28;20052;-63
2022/01/20 09:48:24;;;;;;;8.10;0.90;;;5.70;99.90;;;;;;5036941;28;20034;-62
2022/01/20 09:50:50;;;;;;;14.93;1.65;;;5.80;99.90;;;;;;5034856;28;20032;-62
2022/01/20 09:53:16;;;;;;;12.48;1.48;;;5.90;99.90;;;;;;5036373;28;20638;-63
2022/01/20 09:55:43;;;;;;;19.65;1.88;;;5.80;99.90;;;;;;5036789;28;20042;-63
2022/01/20 09:58:10;;;;;;;10.07;0.82;;;5.80;99.90;;;;;;5039913;28;20033;-62
2022/01/20 10:00:37;;;;;;;5.63;1.23;;;5.70;99.90;;;;;;5037024;28;20029;-62
2022/01/20 10:03:09;;;;;;;9.82;1.63;;;5.70;99.90;;;;;;5034300;28;20028;-63
2022/01/20 10:05:40;;;;;;;15.07;1.75;;;5.70;99.90;;;;;;5035640;28;20121;-62
2022/01/20 10:08:27;;;;;;;13.90;1.48;;;5.80;99.90;;;;;;5031712;28;20552;-61
2022/01/20 10:11:07;;;;;;;14.45;1.75;;;5.80;99.90;;;;;;5030027;28;20492;-62
2022/01/20 10:13:38;;;;;;;8.80;1.58;;;5.80;99.90;;;;;;5032091;28;20045;-62
2022/01/20 10:16:07;;;;;;;4.30;0.60;;;5.90;99.90;;;;;;5035063;28;20099;-62
2022/01/20 10:18:54;;;;;;;10.55;0.80;;;5.90;99.90;;;;;;5032939;28;20038;-61
2022/01/20 10:21:38;;;;;;;7.15;0.90;;;5.80;99.90;;;;;;5029185;28;20497;-62
2022/01/20 10:24:13;;;;;;;7.38;1.05;;;5.80;99.90;;;;;;5029022;28;20068;-61
2022/01/20 10:26:40;;;;;;;8.65;1.27;;;5.80;99.90;;;;;;5036409;28;20052;-62
2022/01/20 10:29:08;;;;;;;6.95;1.40;;;5.90;99.90;;;;;;5037473;28;20034;-63
2022/01/20 10:31:51;;;;;;;3.78;1.50;;;5.80;99.90;;;;;;5035118;28;20041;-62
2022/01/20 10:34:30;;;;;;;12.10;2.17;;;5.90;99.90;;;;;;5033910;28;20311;-62
2022/01/20 10:37:01;;;;;;;10.88;1.27;;;5.90;99.90;;;;;;5036747;28;20592;-62
2022/01/20 10:39:35;;;;;;;7.78;1.80;;;5.80;99.90;;;;;;5036711;28;20042;-62
2022/01/20 10:42:04;;;;;;;5.70;1.52;;;5.80;99.90;;;;;;5040120;28;20065;-62
2022/01/20 10:44:46;;;;;;;8.75;1.83;;;5.80;99.90;;;;;;5038872;28;20116;-63
2022/01/20 10:47:17;;;;;;;3.50;0.98;;;5.90;99.90;;;;;;5035262;28;20451;-65
2022/01/20 10:49:44;;;;;;;10.63;1.23;;;5.90;99.90;;;;;;5035544;28;20112;-63
2022/01/20 10:52:12;;;;;;;7.80;0.90;;;5.90;99.90;;;;;;5034279;28;20048;-62
2022/01/20 10:54:42;;;;;;;9.70;1.88;;;5.90;99.90;;;;;;5037782;28;20048;-64
2022/01/20 10:57:09;;;;;;;6.25;1.17;;;6.00;99.90;;;;;;5033343;28;20119;-62
2022/01/20 10:59:45;;;;;;;9.05;0.90;;;6.00;99.90;;;;;;5033688;28;20049;-63
2022/01/20 11:02:11;;;;;;;5.20;0.70;;;5.90;99.90;;;;;;5027295;28;20041;-66
2022/01/20 11:04:38;;;;;;;5.70;0.75;;;5.90;99.90;;;;;;5033301;28;20455;-62
2022/01/20 11:07:07;;;;;;;4.45;0.88;;;5.80;99.90;;;;;;5033413;28;20037;-62
2022/01/20 11:09:37;;;;;;;6.30;0.85;;;5.80;99.90;;;;;;5031407;28;20033;-62
2022/01/20 11:12:04;;;;;;;7.97;1.15;;;6.00;99.90;;;;;;5034994;28;20040;-63
2022/01/20 11:14:31;;;;;;;4.63;0.70;;;6.30;99.90;;;;;;5032783;28;20121;-62
2022/01/20 11:16:58;;;;;;;5.72;1.25;;;6.50;99.90;;;;;;5035602;28;20045;-64
2022/01/20 11:19:25;;;;;;;10.75;1.58;;;6.50;99.90;;;;;;5035878;28;20627;-65
2022/01/20 11:21:51;;;;;;;6.40;1.20;;;6.50;99.90;;;;;;5035899;28;20037;-64
2022/01/20 11:24:22;;;;;;;4.50;0.70;;;6.50;99.90;;;;;;5036516;28;20142;-62
2022/01/20 11:26:54;;;;;;;8.70;0.95;;;6.40;99.90;;;;;;5034690;28;20029;-62
2022/01/20 11:29:22;;;;;;;3.03;0.70;;;6.40;99.90;;;;;;5035218;28;20037;-62
2022/01/20 11:31:49;;;;;;;6.25;1.30;;;6.30;99.90;;;;;;5026745;28;20050;-61
2022/01/20 11:34:17;;;;;;;8.63;1.67;;;6.30;99.90;;;;;;5029203;28;20083;-61
2022/01/20 11:36:43;;;;;;;8.18;2.00;;;6.20;99.90;;;;;;5029590;28;20048;-62
2022/01/20 11:39:09;;;;;;;4.88;1.23;;;6.10;99.90;;;;;;5038166;28;20067;-61
2022/01/20 11:41:40;;;;;;;5.18;0.80;;;6.10;99.90;;;;;;5033384;28;20408;-64
2022/01/20 11:44:17;;;;;;;11.20;1.50;;;6.10;99.90;;;;;;5033144;28;20065;-61
2022/01/20 11:46:45;;;;;;;14.60;1.98;;;6.00;99.90;;;;;;5033081;28;20045;-63
2022/01/20 11:49:13;;;;;;;12.63;0.85;;;5.90;99.90;;;;;;5033676;28;20033;-62
2022/01/20 11:51:44;;;;;;;5.93;1.00;;;5.80;99.90;;;;;;5030534;28;20044;-62
2022/01/20 11:54:11;;;;;;;5.07;1.00;;;5.70;99.90;;;;;;5030487;28;20046;-62
2022/01/20 11:56:43;;;;;;;12.65;1.17;;;5.70;99.90;;;;;;5038359;28;20033;-68
2022/01/20 11:59:12;;;;;;;10.95;1.90;;;5.80;99.90;;;;;;5034390;28;20460;-62
2022/01/20 12:01:49;;;;;;;16.40;1.08;;;5.80;99.90;;;;;;5034307;28;20045;-63
2022/01/20 12:04:16;;;;;;;10.10;1.77;;;5.90;99.90;;;;;;5037151;28;20182;-64
2022/01/20 12:06:46;;;;;;;8.65;1.65;;;5.90;99.90;;;;;;5036590;28;20123;-62
2022/01/20 12:09:13;;;;;;;9.10;1.38;;;6.00;99.90;;;;;;5031748;28;20034;-62
2022/01/20 12:11:42;;;;;;;5.68;0.90;;;6.00;99.90;;;;;;5035005;28;20037;-62
2022/01/20 12:14:09;;;;;;;7.15;1.75;;;6.10;99.90;;;;;;5037764;28;20136;-62
2022/01/20 12:16:36;;;;;;;5.68;0.70;;;6.30;99.90;;;;;;5033587;28;20041;-62
2022/01/20 12:19:04;;;;;;;7.47;1.13;;;6.40;99.90;;;;;;5036946;28;20041;-62
2022/01/20 12:21:32;;;;;;;6.00;1.92;;;6.40;99.90;;;;;;5038385;28;20036;-63
2022/01/20 12:23:58;;;;;;;12.68;1.35;;;6.40;99.90;;;;;;5038124;28;20389;-62
2022/01/20 12:26:24;;;;;;;10.45;0.77;;;6.20;99.90;;;;;;5033920;28;20456;-62
2022/01/20 12:29:03;;;;;;;6.05;1.02;;;5.80;99.90;;;;;;5034970;28;20037;-62
2022/01/20 12:31:29;;;;;;;9.05;1.40;;;5.60;99.90;;;;;;5037067;28;20477;-62
2022/01/20 12:33:55;;;;;;;8.18;0.77;;;5.30;99.90;;;;;;5039059;28;20097;-62
2022/01/20 12:36:21;;;;;;;12.20;1.23;;;5.10;99.90;;;;;;5033179;28;20049;-63
2022/01/20 12:38:49;;;;;;;9.82;1.45;;;5.00;99.90;;;;;;5038200;28;20033;-62
2022/01/20 12:41:18;;;;;;;6.75;1.73;;;4.90;99.90;;;;;;5038611;28;20042;-63
2022/01/20 12:43:58;;;;;;;5.15;0.70;;;4.90;99.90;;;;;;5039151;28;20083;-63
2022/01/20 12:46:27;;;;;;;7.32;0.90;;;4.80;99.90;;;;;;5035584;28;20034;-63
2022/01/20 12:49:16;;;;;;;10.43;1.48;;;4.80;99.90;;;;;;5039292;28;20037;-62
2022/01/20 12:51:44;;;;;;;8.20;1.55;;;4.80;99.90;;;;;;5034412;28;20329;-61
2022/01/20 12:54:16;;;;;;;13.65;1.58;;;4.90;99.90;;;;;;5035102;28;20033;-61
2022/01/20 12:56:50;;;;;;;5.68;0.95;;;5.10;99.90;;;;;;5033047;28;20572;-62
2022/01/20 12:59:25;;;;;;;3.38;1.25;;;5.10;99.90;;;;;;5039665;28;20044;-62
2022/01/20 13:01:53;;;;;;;16.27;1.52;;;5.30;99.90;;;;;;5038611;28;20580;-62
2022/01/20 13:04:22;;;;;;;9.32;1.27;;;5.40;99.90;;;;;;5032829;28;20041;-62
2022/01/20 13:06:53;;;;;;;11.95;1.45;;;5.50;99.90;;;;;;5035792;28;20046;-62
2022/01/20 13:09:22;;;;;;;12.95;2.17;;;5.50;99.90;;;;;;5038606;28;20037;-64
2022/01/20 13:11:57;;;;;;;6.97;1.77;;;5.70;99.90;;;;;;5034651;28;20029;-62
2022/01/20 13:14:56;;;;;;;8.98;1.02;;;5.80;99.90;;;;;;5034915;28;20047;-62
2022/01/20 13:17:26;;;;;;;10.43;1.05;;;5.80;99.90;;;;;;5027847;28;20120;-62
2022/01/20 13:19:55;;;;;;;12.32;1.63;;;5.90;99.90;;;;;;5036252;28;20045;-62
2022/01/20 13:22:24;;;;;;;10.02;1.98;;;6.00;99.90;;;;;;5036555;28;20060;-62
2022/01/20 13:24:51;;;;;;;8.05;1.33;;;5.90;99.90;;;;;;5036058;28;20029;-62
2022/01/20 13:27:17;;;;;;;7.53;0.80;;;6.00;99.90;;;;;;5038770;28;20037;-64
2022/01/20 13:29:45;;;;;;;11.02;1.15;;;5.90;99.90;;;;;;5035380;28;20040;-64
2022/01/20 13:32:12;;;;;;;15.55;2.75;;;6.00;99.90;;;;;;5032086;28;20045;-62
2022/01/20 13:34:38;;;;;;;11.82;1.45;;;5.90;99.90;;;;;;5038532;28;20035;-63
2022/01/20 13:37:04;;;;;;;6.50;1.45;;;5.80;99.90;;;;;;5033457;28;20037;-63
2022/01/20 13:39:32;;;;;;;6.95;0.65;;;5.90;99.90;;;;;;5035975;28;20028;-63
2022/01/20 13:44:59;;;;;;;4.40;0.85;;;5.90;99.90;;;;;;5031609;28;20122;-63
2022/01/20 13:45:17;;;;;;;6.80;1.60;;;6.00;99.90;;;;;;5032177;28;20033;-62
2022/01/20 13:47:50;;;;;;;2.72;0.82;;;5.90;99.90;;;;;;5033581;28;20044;-62
2022/01/20 13:50:34;;;;;;;9.00;1.38;;;5.90;99.90;;;;;;5034293;28;20097;-63
2022/01/20 13:53:02;;;;;;;5.53;0.95;;;5.90;99.90;;;;;;5030984;28;20030;-61
2022/01/20 13:55:31;;;;;;;12.02;1.92;;;5.90;99.90;;;;;;5031819;28;20041;-61
2022/01/20 13:58:00;;;;;;;9.15;1.55;;;5.80;99.90;;;;;;5037566;28;20098;-63
2022/01/20 14:00:38;;;;;;;15.60;1.75;;;5.70;99.90;;;;;;5031781;28;20443;-63
2022/01/20 14:03:07;;;;;;;11.15;1.38;;;5.40;99.90;;;;;;5033824;28;20485;-64
2022/01/20 14:05:34;;;;;;;9.95;0.90;;;5.20;99.90;;;;;;5033678;28;20041;-62
2022/01/20 14:08:01;;;;;;;15.43;3.03;;;4.90;99.90;;;;;;5035657;28;20033;-63
2022/01/20 14:10:27;;;;;;;10.98;1.70;;;4.80;99.90;;;;;;5029067;28;20144;-62
2022/01/20 14:12:53;;;;;;;9.00;1.48;;;4.70;99.90;;;;;;5033237;28;20049;-62
2022/01/20 14:15:20;;;;;;;11.57;1.92;;;4.60;99.90;;;;;;5037454;28;20036;-62